sensor_id;sensor_type;location;lat;lon;timestamp;P1;durP1;ratioP1;P2;durP2;ratioP2
78416;SDS011;67715;46.170;6.140;2023-03-07T00:02:16;15.93;;;7.40;;
78416;SDS011;67715;46.170;6.140;2023-03-07T00:04:44;11.77;;;6.73;;
78416;SDS011;67715;46.170;6.140;2023-03-07T00:07:10;14.90;;;7.38;;
78416;SDS011;67715;46.170;6.140;2023-03-07T00:09:35;15.07;;;8.10;;
78416;SDS011;67715;46.170;6.140;2023-03-07T00:12:01;13.80;;;8.27;;
78416;SDS011;67715;46.170;6.140;2023-03-07T00:14:26;16.20;;;8.37;;
78416;SDS011;67715;46.170;6.140;2023-03-07T00:16:51;18.40;;;8.10;;
78416;SDS011;67715;46.170;6.140;2023-03-07T00:19:17;16.33;;;7.63;;
78416;SDS011;67715;46.170;6.140;2023-03-07T00:21:45;17.15;;;7.80;;
78416;SDS011;67715;46.170;6.140;2023-03-07T00:24:10;18.27;;;7.50;;
78416;SDS011;67715;46.170;6.140;2023-03-07T00:26:36;15.52;;;7.53;;
78416;SDS011;67715;46.170;6.140;2023-03-07T00:29:05;15.18;;;8.00;;
78416;SDS011;67715;46.170;6.140;2023-03-07T00:31:31;15.23;;;7.78;;
78416;SDS011;67715;46.170;6.140;2023-03-07T00:33:57;17.42;;;7.28;;
78416;SDS011;67715;46.170;6.140;2023-03-07T00:36:22;16.67;;;7.50;;
78416;SDS011;67715;46.170;6.140;2023-03-07T00:38:47;16.10;;;7.57;;
78416;SDS011;67715;46.170;6.140;2023-03-07T00:41:14;17.67;;;7.78;;
78416;SDS011;67715;46.170;6.140;2023-03-07T00:43:41;15.65;;;7.82;;
78416;SDS011;67715;46.170;6.140;2023-03-07T00:46:07;17.45;;;7.45;;
78416;SDS011;67715;46.170;6.140;2023-03-07T00:48:34;17.83;;;7.93;;
78416;SDS011;67715;46.170;6.140;2023-03-07T00:51:01;14.45;;;7.43;;
78416;SDS011;67715;46.170;6.140;2023-03-07T00:53:26;12.23;;;7.03;;
78416;SDS011;67715;46.170;6.140;2023-03-07T00:55:52;15.17;;;7.63;;
78416;SDS011;67715;46.170;6.140;2023-03-07T00:58:26;16.30;;;7.75;;
78416;SDS011;67715;46.170;6.140;2023-03-07T01:00:52;14.07;;;6.75;;
78416;SDS011;67715;46.170;6.140;2023-03-07T01:03:18;18.30;;;7.88;;
78416;SDS011;67715;46.170;6.140;2023-03-07T01:05:43;17.83;;;7.50;;
78416;SDS011;67715;46.170;6.140;2023-03-07T01:08:09;15.00;;;7.70;;
78416;SDS011;67715;46.170;6.140;2023-03-07T01:10:34;14.13;;;6.97;;
78416;SDS011;67715;46.170;6.140;2023-03-07T01:12:59;14.97;;;7.30;;
78416;SDS011;67715;46.170;6.140;2023-03-07T01:15:25;19.45;;;8.35;;
78416;SDS011;67715;46.170;6.140;2023-03-07T01:17:51;15.98;;;7.68;;
78416;SDS011;67715;46.170;6.140;2023-03-07T01:20:16;16.17;;;7.50;;
78416;SDS011;67715;46.170;6.140;2023-03-07T01:22:42;17.83;;;7.72;;
78416;SDS011;67715;46.170;6.140;2023-03-07T01:25:07;19.97;;;9.53;;
78416;SDS011;67715;46.170;6.140;2023-03-07T01:27:33;17.77;;;9.00;;
78416;SDS011;67715;46.170;6.140;2023-03-07T01:29:58;21.60;;;9.30;;
78416;SDS011;67715;46.170;6.140;2023-03-07T01:32:23;20.20;;;10.57;;
78416;SDS011;67715;46.170;6.140;2023-03-07T01:34:49;19.13;;;10.25;;
78416;SDS011;67715;46.170;6.140;2023-03-07T01:37:14;20.17;;;9.60;;
78416;SDS011;67715;46.170;6.140;2023-03-07T01:39:39;15.63;;;8.27;;
78416;SDS011;67715;46.170;6.140;2023-03-07T01:42:05;19.87;;;9.20;;
78416;SDS011;67715;46.170;6.140;2023-03-07T01:44:30;20.00;;;10.30;;
78416;SDS011;67715;46.170;6.140;2023-03-07T01:46:59;24.65;;;10.63;;
78416;SDS011;67715;46.170;6.140;2023-03-07T01:49:31;25.60;;;10.85;;
78416;SDS011;67715;46.170;6.140;2023-03-07T01:54:31;23.95;;;11.27;;
78416;SDS011;67715;46.170;6.140;2023-03-07T01:56:58;24.83;;;12.05;;
78416;SDS011;67715;46.170;6.140;2023-03-07T01:59:33;25.77;;;11.10;;
78416;SDS011;67715;46.170;6.140;2023-03-07T02:02:05;26.35;;;11.35;;
78416;SDS011;67715;46.170;6.140;2023-03-07T02:04:42;23.20;;;11.15;;
78416;SDS011;67715;46.170;6.140;2023-03-07T02:07:10;19.58;;;10.63;;
78416;SDS011;67715;46.170;6.140;2023-03-07T02:09:35;25.48;;;10.20;;
78416;SDS011;67715;46.170;6.140;2023-03-07T02:12:01;23.95;;;10.90;;
78416;SDS011;67715;46.170;6.140;2023-03-07T02:14:26;25.40;;;10.63;;
78416;SDS011;67715;46.170;6.140;2023-03-07T02:16:52;20.97;;;10.43;;
78416;SDS011;67715;46.170;6.140;2023-03-07T02:22:08;18.23;;;8.98;;
78416;SDS011;67715;46.170;6.140;2023-03-07T02:24:44;22.02;;;9.50;;
78416;SDS011;67715;46.170;6.140;2023-03-07T02:27:24;21.35;;;9.07;;
78416;SDS011;67715;46.170;6.140;2023-03-07T02:29:50;19.27;;;8.82;;
78416;SDS011;67715;46.170;6.140;2023-03-07T02:32:15;20.83;;;10.45;;
78416;SDS011;67715;46.170;6.140;2023-03-07T02:34:41;16.65;;;8.85;;
78416;SDS011;67715;46.170;6.140;2023-03-07T02:37:08;23.60;;;9.97;;
78416;SDS011;67715;46.170;6.140;2023-03-07T02:39:36;20.98;;;9.70;;
78416;SDS011;67715;46.170;6.140;2023-03-07T02:42:05;19.27;;;9.35;;
78416;SDS011;67715;46.170;6.140;2023-03-07T02:44:33;20.67;;;8.63;;
78416;SDS011;67715;46.170;6.140;2023-03-07T02:46:58;16.77;;;9.47;;
78416;SDS011;67715;46.170;6.140;2023-03-07T02:49:23;16.50;;;9.10;;
78416;SDS011;67715;46.170;6.140;2023-03-07T02:51:48;17.97;;;9.73;;
78416;SDS011;67715;46.170;6.140;2023-03-07T02:54:14;19.90;;;8.80;;
78416;SDS011;67715;46.170;6.140;2023-03-07T02:56:39;18.33;;;7.80;;
78416;SDS011;67715;46.170;6.140;2023-03-07T02:59:04;19.93;;;8.70;;
78416;SDS011;67715;46.170;6.140;2023-03-07T03:01:30;18.87;;;8.37;;
78416;SDS011;67715;46.170;6.140;2023-03-07T03:03:55;20.77;;;9.20;;
78416;SDS011;67715;46.170;6.140;2023-03-07T03:06:21;18.15;;;8.45;;
78416;SDS011;67715;46.170;6.140;2023-03-07T03:08:46;17.00;;;7.63;;
78416;SDS011;67715;46.170;6.140;2023-03-07T03:11:11;18.60;;;8.63;;
78416;SDS011;67715;46.170;6.140;2023-03-07T03:13:37;18.40;;;8.57;;
78416;SDS011;67715;46.170;6.140;2023-03-07T03:16:02;16.27;;;7.87;;
78416;SDS011;67715;46.170;6.140;2023-03-07T03:18:28;23.80;;;8.80;;
78416;SDS011;67715;46.170;6.140;2023-03-07T03:20:54;19.90;;;8.45;;
78416;SDS011;67715;46.170;6.140;2023-03-07T03:23:19;18.10;;;8.30;;
78416;SDS011;67715;46.170;6.140;2023-03-07T03:25:44;22.60;;;8.97;;
78416;SDS011;67715;46.170;6.140;2023-03-07T03:28:10;20.30;;;9.38;;
78416;SDS011;67715;46.170;6.140;2023-03-07T03:30:37;23.58;;;9.00;;
78416;SDS011;67715;46.170;6.140;2023-03-07T03:33:02;18.50;;;8.45;;
78416;SDS011;67715;46.170;6.140;2023-03-07T03:35:28;21.10;;;8.37;;
78416;SDS011;67715;46.170;6.140;2023-03-07T03:37:53;20.57;;;9.37;;
78416;SDS011;67715;46.170;6.140;2023-03-07T03:40:18;23.47;;;9.97;;
78416;SDS011;67715;46.170;6.140;2023-03-07T03:42:45;21.80;;;8.55;;
78416;SDS011;67715;46.170;6.140;2023-03-07T03:45:11;19.63;;;8.52;;
78416;SDS011;67715;46.170;6.140;2023-03-07T03:47:38;18.63;;;8.90;;
78416;SDS011;67715;46.170;6.140;2023-03-07T03:50:04;23.83;;;8.88;;
78416;SDS011;67715;46.170;6.140;2023-03-07T03:52:29;23.02;;;8.88;;
78416;SDS011;67715;46.170;6.140;2023-03-07T03:54:55;20.33;;;8.13;;
78416;SDS011;67715;46.170;6.140;2023-03-07T04:02:11;14.53;;;7.10;;
78416;SDS011;67715;46.170;6.140;2023-03-07T04:04:37;16.02;;;7.95;;
78416;SDS011;67715;46.170;6.140;2023-03-07T04:07:02;16.40;;;8.65;;
78416;SDS011;67715;46.170;6.140;2023-03-07T04:09:28;21.50;;;9.07;;
78416;SDS011;67715;46.170;6.140;2023-03-07T04:11:54;17.40;;;8.07;;
78416;SDS011;67715;46.170;6.140;2023-03-07T04:14:19;15.53;;;9.43;;
78416;SDS011;67715;46.170;6.140;2023-03-07T04:16:45;25.10;;;9.45;;
78416;SDS011;67715;46.170;6.140;2023-03-07T04:19:11;22.60;;;9.50;;
78416;SDS011;67715;46.170;6.140;2023-03-07T04:21:37;21.83;;;9.38;;
78416;SDS011;67715;46.170;6.140;2023-03-07T04:24:03;24.30;;;8.82;;
78416;SDS011;67715;46.170;6.140;2023-03-07T04:26:29;20.13;;;9.98;;
78416;SDS011;67715;46.170;6.140;2023-03-07T04:28:54;19.90;;;9.07;;
78416;SDS011;67715;46.170;6.140;2023-03-07T04:31:21;19.97;;;8.33;;
78416;SDS011;67715;46.170;6.140;2023-03-07T04:33:47;21.17;;;10.18;;
78416;SDS011;67715;46.170;6.140;2023-03-07T04:36:13;18.80;;;8.25;;
78416;SDS011;67715;46.170;6.140;2023-03-07T04:38:41;18.73;;;8.88;;
78416;SDS011;67715;46.170;6.140;2023-03-07T04:41:07;16.45;;;8.43;;
78416;SDS011;67715;46.170;6.140;2023-03-07T04:43:35;26.15;;;11.02;;
78416;SDS011;67715;46.170;6.140;2023-03-07T04:46:00;18.93;;;8.23;;
78416;SDS011;67715;46.170;6.140;2023-03-07T04:50:51;18.37;;;8.17;;
78416;SDS011;67715;46.170;6.140;2023-03-07T04:53:17;20.05;;;9.43;;
78416;SDS011;67715;46.170;6.140;2023-03-07T04:55:43;21.00;;;8.55;;
78416;SDS011;67715;46.170;6.140;2023-03-07T04:58:09;16.45;;;9.02;;
78416;SDS011;67715;46.170;6.140;2023-03-07T05:00:37;17.58;;;8.23;;
78416;SDS011;67715;46.170;6.140;2023-03-07T05:03:05;23.85;;;9.27;;
78416;SDS011;67715;46.170;6.140;2023-03-07T05:05:30;21.10;;;8.65;;
78416;SDS011;67715;46.170;6.140;2023-03-07T05:07:56;19.33;;;8.70;;
78416;SDS011;67715;46.170;6.140;2023-03-07T05:10:21;15.47;;;9.33;;
78416;SDS011;67715;46.170;6.140;2023-03-07T05:12:46;19.50;;;8.40;;
78416;SDS011;67715;46.170;6.140;2023-03-07T05:15:12;17.93;;;8.87;;
78416;SDS011;67715;46.170;6.140;2023-03-07T05:17:37;18.17;;;9.00;;
78416;SDS011;67715;46.170;6.140;2023-03-07T05:20:03;21.43;;;9.63;;
78416;SDS011;67715;46.170;6.140;2023-03-07T05:22:28;23.10;;;9.90;;
78416;SDS011;67715;46.170;6.140;2023-03-07T05:24:54;16.57;;;8.57;;
78416;SDS011;67715;46.170;6.140;2023-03-07T05:29:44;15.10;;;6.83;;
78416;SDS011;67715;46.170;6.140;2023-03-07T05:32:10;16.67;;;8.35;;
78416;SDS011;67715;46.170;6.140;2023-03-07T05:34:35;17.93;;;8.37;;
78416;SDS011;67715;46.170;6.140;2023-03-07T05:37:03;21.63;;;9.02;;
78416;SDS011;67715;46.170;6.140;2023-03-07T05:39:29;19.58;;;9.82;;
78416;SDS011;67715;46.170;6.140;2023-03-07T05:41:54;20.53;;;9.57;;
78416;SDS011;67715;46.170;6.140;2023-03-07T05:44:19;21.07;;;9.27;;
78416;SDS011;67715;46.170;6.140;2023-03-07T05:46:45;26.70;;;11.90;;
78416;SDS011;67715;46.170;6.140;2023-03-07T05:49:10;20.88;;;10.02;;
78416;SDS011;67715;46.170;6.140;2023-03-07T05:51:35;26.20;;;11.27;;
78416;SDS011;67715;46.170;6.140;2023-03-07T05:54:01;24.50;;;12.30;;
78416;SDS011;67715;46.170;6.140;2023-03-07T05:56:26;29.30;;;12.70;;
78416;SDS011;67715;46.170;6.140;2023-03-07T05:58:51;23.90;;;12.03;;
78416;SDS011;67715;46.170;6.140;2023-03-07T06:01:16;22.63;;;10.40;;
78416;SDS011;67715;46.170;6.140;2023-03-07T06:03:42;25.90;;;13.87;;
78416;SDS011;67715;46.170;6.140;2023-03-07T06:06:08;24.83;;;11.68;;
78416;SDS011;67715;46.170;6.140;2023-03-07T06:08:34;24.55;;;11.38;;
78416;SDS011;67715;46.170;6.140;2023-03-07T06:11:00;23.73;;;12.10;;
78416;SDS011;67715;46.170;6.140;2023-03-07T06:13:25;23.87;;;12.13;;
78416;SDS011;67715;46.170;6.140;2023-03-07T06:15:51;20.70;;;10.05;;
78416;SDS011;67715;46.170;6.140;2023-03-07T06:18:17;22.17;;;12.48;;
78416;SDS011;67715;46.170;6.140;2023-03-07T06:20:42;27.05;;;11.32;;
78416;SDS011;67715;46.170;6.140;2023-03-07T06:23:07;19.77;;;10.63;;
78416;SDS011;67715;46.170;6.140;2023-03-07T06:25:33;22.80;;;10.23;;
78416;SDS011;67715;46.170;6.140;2023-03-07T06:30:25;18.42;;;8.77;;
78416;SDS011;67715;46.170;6.140;2023-03-07T06:32:51;26.83;;;10.82;;
78416;SDS011;67715;46.170;6.140;2023-03-07T06:35:16;19.33;;;9.37;;
78416;SDS011;67715;46.170;6.140;2023-03-07T06:37:41;20.43;;;9.73;;
78416;SDS011;67715;46.170;6.140;2023-03-07T06:40:07;20.77;;;9.60;;
78416;SDS011;67715;46.170;6.140;2023-03-07T06:42:33;25.30;;;11.43;;
78416;SDS011;67715;46.170;6.140;2023-03-07T06:44:59;25.67;;;10.85;;
78416;SDS011;67715;46.170;6.140;2023-03-07T06:47:24;27.42;;;11.93;;
78416;SDS011;67715;46.170;6.140;2023-03-07T06:49:50;22.93;;;12.03;;
78416;SDS011;67715;46.170;6.140;2023-03-07T06:52:16;28.23;;;12.07;;
78416;SDS011;67715;46.170;6.140;2023-03-07T06:54:41;28.70;;;11.10;;
78416;SDS011;67715;46.170;6.140;2023-03-07T06:57:06;28.90;;;10.77;;
78416;SDS011;67715;46.170;6.140;2023-03-07T06:59:32;22.20;;;10.83;;
78416;SDS011;67715;46.170;6.140;2023-03-07T07:01:57;23.87;;;9.63;;
78416;SDS011;67715;46.170;6.140;2023-03-07T07:04:25;20.55;;;9.45;;
78416;SDS011;67715;46.170;6.140;2023-03-07T07:06:51;23.17;;;10.18;;
78416;SDS011;67715;46.170;6.140;2023-03-07T07:09:16;21.08;;;10.07;;
78416;SDS011;67715;46.170;6.140;2023-03-07T07:11:41;31.53;;;11.53;;
78416;SDS011;67715;46.170;6.140;2023-03-07T07:14:07;34.33;;;12.13;;
78416;SDS011;67715;46.170;6.140;2023-03-07T07:16:32;25.80;;;13.20;;
78416;SDS011;67715;46.170;6.140;2023-03-07T07:19:00;28.63;;;13.30;;
78416;SDS011;67715;46.170;6.140;2023-03-07T07:21:25;24.83;;;11.10;;
78416;SDS011;67715;46.170;6.140;2023-03-07T07:23:50;27.23;;;12.13;;
78416;SDS011;67715;46.170;6.140;2023-03-07T07:26:16;25.43;;;11.73;;
78416;SDS011;67715;46.170;6.140;2023-03-07T07:28:41;31.17;;;12.77;;
78416;SDS011;67715;46.170;6.140;2023-03-07T07:31:06;24.90;;;10.50;;
78416;SDS011;67715;46.170;6.140;2023-03-07T07:33:32;22.95;;;10.18;;
78416;SDS011;67715;46.170;6.140;2023-03-07T07:35:57;24.40;;;10.77;;
78416;SDS011;67715;46.170;6.140;2023-03-07T07:38:22;26.93;;;11.70;;
78416;SDS011;67715;46.170;6.140;2023-03-07T07:40:48;25.55;;;10.65;;
78416;SDS011;67715;46.170;6.140;2023-03-07T07:43:14;29.50;;;11.95;;
78416;SDS011;67715;46.170;6.140;2023-03-07T07:45:40;24.60;;;11.68;;
78416;SDS011;67715;46.170;6.140;2023-03-07T07:48:06;27.30;;;12.40;;
78416;SDS011;67715;46.170;6.140;2023-03-07T07:50:31;29.80;;;11.90;;
78416;SDS011;67715;46.170;6.140;2023-03-07T07:52:56;19.20;;;9.70;;
78416;SDS011;67715;46.170;6.140;2023-03-07T07:55:21;26.80;;;10.67;;
78416;SDS011;67715;46.170;6.140;2023-03-07T07:57:48;24.90;;;11.50;;
78416;SDS011;67715;46.170;6.140;2023-03-07T08:00:15;22.92;;;9.98;;
78416;SDS011;67715;46.170;6.140;2023-03-07T08:02:45;22.40;;;10.52;;
78416;SDS011;67715;46.170;6.140;2023-03-07T08:05:13;23.13;;;10.20;;
78416;SDS011;67715;46.170;6.140;2023-03-07T08:07:39;23.45;;;10.68;;
78416;SDS011;67715;46.170;6.140;2023-03-07T08:10:05;21.47;;;10.17;;
78416;SDS011;67715;46.170;6.140;2023-03-07T08:12:31;22.50;;;9.82;;
78416;SDS011;67715;46.170;6.140;2023-03-07T08:14:56;20.70;;;9.43;;
78416;SDS011;67715;46.170;6.140;2023-03-07T08:17:22;18.13;;;9.27;;
78416;SDS011;67715;46.170;6.140;2023-03-07T08:19:47;20.93;;;9.73;;
78416;SDS011;67715;46.170;6.140;2023-03-07T08:22:12;24.73;;;9.90;;
78416;SDS011;67715;46.170;6.140;2023-03-07T08:24:37;17.30;;;9.57;;
78416;SDS011;67715;46.170;6.140;2023-03-07T08:27:03;23.58;;;9.20;;
78416;SDS011;67715;46.170;6.140;2023-03-07T08:29:29;23.75;;;10.15;;
78416;SDS011;67715;46.170;6.140;2023-03-07T08:31:54;26.27;;;10.27;;
78416;SDS011;67715;46.170;6.140;2023-03-07T08:34:19;25.03;;;10.00;;
78416;SDS011;67715;46.170;6.140;2023-03-07T08:36:45;20.77;;;9.30;;
78416;SDS011;67715;46.170;6.140;2023-03-07T08:39:10;18.25;;;8.60;;
78416;SDS011;67715;46.170;6.140;2023-03-07T08:41:36;21.00;;;8.40;;
78416;SDS011;67715;46.170;6.140;2023-03-07T08:44:02;18.15;;;9.82;;
78416;SDS011;67715;46.170;6.140;2023-03-07T08:46:27;24.40;;;10.20;;
78416;SDS011;67715;46.170;6.140;2023-03-07T08:48:52;20.40;;;9.63;;
78416;SDS011;67715;46.170;6.140;2023-03-07T08:51:18;19.37;;;9.60;;
78416;SDS011;67715;46.170;6.140;2023-03-07T08:53:43;21.80;;;9.13;;
78416;SDS011;67715;46.170;6.140;2023-03-07T08:56:11;17.92;;;8.90;;
78416;SDS011;67715;46.170;6.140;2023-03-07T08:58:37;18.00;;;10.13;;
78416;SDS011;67715;46.170;6.140;2023-03-07T09:01:03;21.83;;;9.93;;
78416;SDS011;67715;46.170;6.140;2023-03-07T09:03:29;20.90;;;9.57;;
78416;SDS011;67715;46.170;6.140;2023-03-07T09:05:54;17.75;;;9.13;;
78416;SDS011;67715;46.170;6.140;2023-03-07T09:08:20;21.83;;;9.63;;
78416;SDS011;67715;46.170;6.140;2023-03-07T09:10:45;17.23;;;8.57;;
78416;SDS011;67715;46.170;6.140;2023-03-07T09:13:10;23.97;;;10.90;;
78416;SDS011;67715;46.170;6.140;2023-03-07T09:15:39;24.23;;;10.88;;
78416;SDS011;67715;46.170;6.140;2023-03-07T09:18:06;24.58;;;9.93;;
78416;SDS011;67715;46.170;6.140;2023-03-07T09:20:31;19.02;;;9.00;;
78416;SDS011;67715;46.170;6.140;2023-03-07T09:22:57;18.33;;;9.17;;
78416;SDS011;67715;46.170;6.140;2023-03-07T09:25:22;18.93;;;10.27;;
78416;SDS011;67715;46.170;6.140;2023-03-07T09:27:47;18.77;;;10.20;;
78416;SDS011;67715;46.170;6.140;2023-03-07T09:30:13;21.83;;;9.80;;
78416;SDS011;67715;46.170;6.140;2023-03-07T09:32:39;19.00;;;9.70;;
78416;SDS011;67715;46.170;6.140;2023-03-07T09:35:04;27.83;;;10.27;;
78416;SDS011;67715;46.170;6.140;2023-03-07T09:37:30;24.63;;;10.73;;
78416;SDS011;67715;46.170;6.140;2023-03-07T09:39:55;19.47;;;10.77;;
78416;SDS011;67715;46.170;6.140;2023-03-07T09:51:00;20.05;;;9.93;;
78416;SDS011;67715;46.170;6.140;2023-03-07T09:53:50;19.02;;;9.63;;
78416;SDS011;67715;46.170;6.140;2023-03-07T09:56:29;19.90;;;9.75;;
78416;SDS011;67715;46.170;6.140;2023-03-07T09:58:59;20.45;;;9.70;;
78416;SDS011;67715;46.170;6.140;2023-03-07T10:01:28;25.63;;;10.15;;
78416;SDS011;67715;46.170;6.140;2023-03-07T10:04:02;18.85;;;9.60;;
78416;SDS011;67715;46.170;6.140;2023-03-07T10:08:54;24.30;;;9.63;;
78416;SDS011;67715;46.170;6.140;2023-03-07T10:16:54;22.05;;;9.50;;
78416;SDS011;67715;46.170;6.140;2023-03-07T10:19:28;22.45;;;10.48;;
78416;SDS011;67715;46.170;6.140;2023-03-07T10:27:24;18.67;;;9.25;;
78416;SDS011;67715;46.170;6.140;2023-03-07T10:29:52;18.90;;;9.43;;
78416;SDS011;67715;46.170;6.140;2023-03-07T10:32:20;18.58;;;8.85;;
78416;SDS011;67715;46.170;6.140;2023-03-07T10:34:56;18.88;;;9.23;;
78416;SDS011;67715;46.170;6.140;2023-03-07T10:37:28;20.55;;;9.23;;
78416;SDS011;67715;46.170;6.140;2023-03-07T10:40:01;26.83;;;9.30;;
78416;SDS011;67715;46.170;6.140;2023-03-07T10:42:29;19.95;;;9.23;;
78416;SDS011;67715;46.170;6.140;2023-03-07T10:44:59;19.67;;;8.10;;
78416;SDS011;67715;46.170;6.140;2023-03-07T10:47:26;15.70;;;8.30;;
78416;SDS011;67715;46.170;6.140;2023-03-07T10:49:59;21.38;;;10.15;;
78416;SDS011;67715;46.170;6.140;2023-03-07T10:52:36;18.00;;;8.38;;
78416;SDS011;67715;46.170;6.140;2023-03-07T10:57:54;19.65;;;9.45;;
78416;SDS011;67715;46.170;6.140;2023-03-07T11:00:38;19.23;;;8.98;;
78416;SDS011;67715;46.170;6.140;2023-03-07T11:03:05;18.05;;;8.35;;
78416;SDS011;67715;46.170;6.140;2023-03-07T11:05:46;15.02;;;8.82;;
78416;SDS011;67715;46.170;6.140;2023-03-07T11:08:19;16.90;;;8.18;;
78416;SDS011;67715;46.170;6.140;2023-03-07T11:11:05;13.45;;;7.32;;
78416;SDS011;67715;46.170;6.140;2023-03-07T11:14:03;16.25;;;8.23;;
78416;SDS011;67715;46.170;6.140;2023-03-07T11:16:30;19.23;;;8.32;;
78416;SDS011;67715;46.170;6.140;2023-03-07T11:18:55;16.38;;;8.27;;
78416;SDS011;67715;46.170;6.140;2023-03-07T11:24:02;17.13;;;8.18;;
78416;SDS011;67715;46.170;6.140;2023-03-07T11:26:30;16.50;;;8.02;;
78416;SDS011;67715;46.170;6.140;2023-03-07T11:29:07;19.40;;;8.88;;
78416;SDS011;67715;46.170;6.140;2023-03-07T11:31:37;13.55;;;7.65;;
78416;SDS011;67715;46.170;6.140;2023-03-07T11:36:55;17.70;;;8.73;;
78416;SDS011;67715;46.170;6.140;2023-03-07T11:39:52;15.77;;;7.88;;
78416;SDS011;67715;46.170;6.140;2023-03-07T11:42:27;17.98;;;8.55;;
78416;SDS011;67715;46.170;6.140;2023-03-07T11:45:45;15.60;;;8.45;;
78416;SDS011;67715;46.170;6.140;2023-03-07T11:50:35;14.18;;;7.55;;
78416;SDS011;67715;46.170;6.140;2023-03-07T11:53:12;16.65;;;7.80;;
78416;SDS011;67715;46.170;6.140;2023-03-07T11:55:56;17.98;;;8.50;;
78416;SDS011;67715;46.170;6.140;2023-03-07T12:07:32;18.20;;;9.88;;
78416;SDS011;67715;46.170;6.140;2023-03-07T12:14:54;17.42;;;8.55;;
78416;SDS011;67715;46.170;6.140;2023-03-07T12:20:24;16.40;;;8.57;;
78416;SDS011;67715;46.170;6.140;2023-03-07T12:25:52;13.88;;;7.43;;
78416;SDS011;67715;46.170;6.140;2023-03-07T12:44:52;11.73;;;6.47;;
78416;SDS011;67715;46.170;6.140;2023-03-07T12:47:24;16.92;;;8.05;;
78416;SDS011;67715;46.170;6.140;2023-03-07T12:57:42;15.30;;;7.43;;
78416;SDS011;67715;46.170;6.140;2023-03-07T13:00:16;16.45;;;7.40;;
78416;SDS011;67715;46.170;6.140;2023-03-07T13:02:48;20.42;;;8.20;;
78416;SDS011;67715;46.170;6.140;2023-03-07T13:05:26;17.98;;;8.80;;
78416;SDS011;67715;46.170;6.140;2023-03-07T13:07:51;17.83;;;6.60;;
78416;SDS011;67715;46.170;6.140;2023-03-07T13:10:18;21.05;;;8.07;;
78416;SDS011;67715;46.170;6.140;2023-03-07T13:12:45;14.88;;;7.72;;
78416;SDS011;67715;46.170;6.140;2023-03-07T13:27:46;17.63;;;7.53;;
78416;SDS011;67715;46.170;6.140;2023-03-07T13:30:28;11.68;;;6.63;;
78416;SDS011;67715;46.170;6.140;2023-03-07T13:43:00;12.88;;;6.78;;
78416;SDS011;67715;46.170;6.140;2023-03-07T13:48:10;14.52;;;7.78;;
78416;SDS011;67715;46.170;6.140;2023-03-07T13:50:37;14.43;;;7.75;;
78416;SDS011;67715;46.170;6.140;2023-03-07T13:58:43;14.75;;;7.80;;
78416;SDS011;67715;46.170;6.140;2023-03-07T14:03:39;16.27;;;8.00;;
78416;SDS011;67715;46.170;6.140;2023-03-07T14:06:12;16.58;;;8.25;;
78416;SDS011;67715;46.170;6.140;2023-03-07T14:08:39;19.70;;;8.73;;
78416;SDS011;67715;46.170;6.140;2023-03-07T14:11:05;17.02;;;9.15;;
78416;SDS011;67715;46.170;6.140;2023-03-07T14:16:36;16.30;;;9.07;;
78416;SDS011;67715;46.170;6.140;2023-03-07T14:21:55;16.25;;;7.97;;
78416;SDS011;67715;46.170;6.140;2023-03-07T14:27:09;14.35;;;7.40;;
78416;SDS011;67715;46.170;6.140;2023-03-07T14:29:36;17.35;;;8.75;;
78416;SDS011;67715;46.170;6.140;2023-03-07T14:34:53;19.15;;;8.40;;
78416;SDS011;67715;46.170;6.140;2023-03-07T14:37:26;14.05;;;6.57;;
78416;SDS011;67715;46.170;6.140;2023-03-07T14:42:27;12.02;;;6.05;;
78416;SDS011;67715;46.170;6.140;2023-03-07T14:45:07;13.43;;;6.55;;
78416;SDS011;67715;46.170;6.140;2023-03-07T14:50:27;15.25;;;6.63;;
78416;SDS011;67715;46.170;6.140;2023-03-07T14:52:56;11.50;;;6.70;;
78416;SDS011;67715;46.170;6.140;2023-03-07T14:55:24;12.18;;;5.57;;
78416;SDS011;67715;46.170;6.140;2023-03-07T14:57:50;10.05;;;4.57;;
78416;SDS011;67715;46.170;6.140;2023-03-07T15:02:50;11.25;;;5.97;;
78416;SDS011;67715;46.170;6.140;2023-03-07T15:05:19;11.07;;;5.13;;
78416;SDS011;67715;46.170;6.140;2023-03-07T15:07:46;8.02;;;4.05;;
78416;SDS011;67715;46.170;6.140;2023-03-07T15:10:19;11.65;;;5.13;;
78416;SDS011;67715;46.170;6.140;2023-03-07T15:12:48;8.70;;;4.55;;
78416;SDS011;67715;46.170;6.140;2023-03-07T15:15:22;9.70;;;5.13;;
78416;SDS011;67715;46.170;6.140;2023-03-07T15:17:51;13.65;;;6.80;;
78416;SDS011;67715;46.170;6.140;2023-03-07T15:20:22;14.93;;;6.13;;
78416;SDS011;67715;46.170;6.140;2023-03-07T15:22:48;15.10;;;7.57;;
78416;SDS011;67715;46.170;6.140;2023-03-07T15:25:20;14.88;;;7.60;;
78416;SDS011;67715;46.170;6.140;2023-03-07T15:27:56;12.88;;;7.13;;
78416;SDS011;67715;46.170;6.140;2023-03-07T15:30:28;15.63;;;7.75;;
78416;SDS011;67715;46.170;6.140;2023-03-07T15:35:35;11.55;;;6.47;;
78416;SDS011;67715;46.170;6.140;2023-03-07T15:38:06;17.80;;;8.33;;
78416;SDS011;67715;46.170;6.140;2023-03-07T15:40:38;15.80;;;8.15;;
78416;SDS011;67715;46.170;6.140;2023-03-07T15:47:55;18.45;;;12.25;;
78416;SDS011;67715;46.170;6.140;2023-03-07T15:50:22;16.75;;;7.95;;
78416;SDS011;67715;46.170;6.140;2023-03-07T15:52:50;16.27;;;8.50;;
78416;SDS011;67715;46.170;6.140;2023-03-07T15:55:17;17.45;;;9.15;;
78416;SDS011;67715;46.170;6.140;2023-03-07T16:00:20;18.35;;;9.00;;
78416;SDS011;67715;46.170;6.140;2023-03-07T16:02:51;17.42;;;9.02;;
78416;SDS011;67715;46.170;6.140;2023-03-07T16:07:52;23.67;;;10.75;;
78416;SDS011;67715;46.170;6.140;2023-03-07T16:10:20;22.70;;;10.30;;
78416;SDS011;67715;46.170;6.140;2023-03-07T16:12:47;20.20;;;10.88;;
78416;SDS011;67715;46.170;6.140;2023-03-07T16:15:13;18.70;;;8.45;;
78416;SDS011;67715;46.170;6.140;2023-03-07T16:17:40;13.65;;;8.48;;
78416;SDS011;67715;46.170;6.140;2023-03-07T16:20:16;13.27;;;7.85;;
78416;SDS011;67715;46.170;6.140;2023-03-07T16:22:43;19.00;;;9.38;;
78416;SDS011;67715;46.170;6.140;2023-03-07T16:25:08;22.52;;;11.18;;
78416;SDS011;67715;46.170;6.140;2023-03-07T16:27:36;20.15;;;9.75;;
78416;SDS011;67715;46.170;6.140;2023-03-07T16:30:04;17.83;;;9.07;;
78416;SDS011;67715;46.170;6.140;2023-03-07T16:32:36;16.70;;;8.55;;
78416;SDS011;67715;46.170;6.140;2023-03-07T16:35:01;17.27;;;8.57;;
78416;SDS011;67715;46.170;6.140;2023-03-07T16:37:26;18.63;;;9.83;;
78416;SDS011;67715;46.170;6.140;2023-03-07T16:39:52;22.33;;;8.00;;
78416;SDS011;67715;46.170;6.140;2023-03-07T16:42:18;16.87;;;7.57;;
78416;SDS011;67715;46.170;6.140;2023-03-07T16:44:45;14.32;;;7.32;;
78416;SDS011;67715;46.170;6.140;2023-03-07T16:47:15;16.02;;;8.73;;
78416;SDS011;67715;46.170;6.140;2023-03-07T16:49:41;10.75;;;6.97;;
78416;SDS011;67715;46.170;6.140;2023-03-07T16:52:10;12.52;;;6.88;;
78416;SDS011;67715;46.170;6.140;2023-03-07T16:54:36;8.20;;;5.75;;
78416;SDS011;67715;46.170;6.140;2023-03-07T16:57:02;9.40;;;5.50;;
78416;SDS011;67715;46.170;6.140;2023-03-07T16:59:30;12.15;;;5.85;;
78416;SDS011;67715;46.170;6.140;2023-03-07T17:01:58;7.85;;;5.10;;
78416;SDS011;67715;46.170;6.140;2023-03-07T17:04:24;10.27;;;5.32;;
78416;SDS011;67715;46.170;6.140;2023-03-07T17:06:49;5.10;;;4.20;;
78416;SDS011;67715;46.170;6.140;2023-03-07T17:09:14;8.10;;;5.73;;
78416;SDS011;67715;46.170;6.140;2023-03-07T17:11:44;7.97;;;5.17;;
78416;SDS011;67715;46.170;6.140;2023-03-07T17:14:11;10.45;;;6.38;;